• Join FlightAware (Why Join?)
  • Login
  • US Flag 
08:52AM EDT


 

Airport Tracker/Info


-or-


 

Live Flight TrackerFlight Track Log ✈ N888FM ✈ 25-Jan-2014 ✈ KCLT - KAVP

Flight Track Log - Related Links

Times and Time Zones

All times are in EST time to prevent confusion due to time zone crossing. See the N888FM flight status page for this flight to view local times or setup timezone preferences in your user account.

Time Position Orientation Groundspeed Altitude Reporting Facility
EST Latitude Longitude Course Direction KTS MPH feet Rate Location/Type
10:51AM 35.1894 -80.9586 234° Southwest 156 180 3,000  Level Atlanta Center
10:52AM 35.2156 -81.0033 306° West 215 247 4,000 1,380 Climbing Atlanta Center
10:53AM 35.2722 -81.0242 343° North 218 251 5,700 1,620 Climbing Atlanta Center
10:54AM 35.3189 -81.0506 335° Northwest 215 247 7,300 1,560 Climbing Atlanta Center
10:55AM 35.3694 -81.0767 337° Northwest 210 242 8,900 1,320 Climbing Atlanta Center
10:56AM 35.4283 -81.0925 348° North 204 235 10,000 1,020 Climbing Atlanta Center
10:57AM 35.4872 -81.1106 346° North 214 246 11,000 960 Climbing Atlanta Center
10:58AM 35.5503 -81.1314 345° North 219 252 12,000 960 Climbing Atlanta Center
10:59AM 35.6172 -81.1419 353° North 230 265 13,000 1,020 Climbing Atlanta Center
11:00AM 35.6997 -81.0981 23° Northeast 259 298 14,100 1,020 Climbing Atlanta Center
11:01AM 35.7739 -81.0544 26° Northeast 273 314 15,100 960 Climbing Atlanta Center
11:02AM 35.8478 -81.0133 24° Northeast 285 328 16,100 960 Climbing Atlanta Center
11:03AM 35.9219 -80.9694 26° Northeast 290 334 17,100 960 Climbing Atlanta Center
11:04AM 36.0000 -80.9253 25° Northeast 295 339 18,100 1,020 Climbing Atlanta Center
11:05AM 36.0761 -80.8814 25° Northeast 295 339 19,200 1,020 Climbing Atlanta Center
11:06AM 36.1500 -80.8400 24° Northeast 295 339 20,200 900 Climbing Atlanta Center
11:07AM 36.2261 -80.7958 25° Northeast 295 339 21,000 780 Climbing Atlanta Center
11:08AM 36.3019 -80.7514 25° Northeast 295 339 21,800 780 Climbing Atlanta Center
11:09AM 36.3781 -80.7069 25° Northeast 300 345 22,600 600 Climbing Atlanta Center
11:10AM 36.4581 -80.6597 25° Northeast 300 345 23,000 180 Climbing Atlanta Center
11:11AM 36.5400 -80.6100 26° Northeast 312 359 23,000  Level Atlanta Center
11:12AM 36.6242 -80.5622 24° Northeast 318 366 23,000  Level Atlanta Center
11:13AM 36.7125 -80.5119 25° Northeast 324 373 23,000  Level Atlanta Center
11:14AM 36.7986 -80.4614 25° Northeast 331 381 23,000  Level Atlanta Center
11:15AM 36.8847 -80.4133 24° Northeast 331 381 23,000  Level Atlanta Center
11:16AM 36.9708 -80.3628 25° Northeast 331 381 23,000  Level Atlanta Center
11:17AM 37.0486 -80.3147 26° Northeast 331 381 23,000  Level Atlanta Center
11:19AM 37.2608 -80.1911 25° Northeast 348 400 23,000  Level Washington Center
11:20AM 37.3456 -80.1389 26° Northeast 348 400 23,000  Level Washington Center
11:21AM 37.4303 -80.0883 25° Northeast 343 395 23,000  Level Washington Center
11:22AM 37.5331 -80.0275 25° Northeast 345 397 23,000  Level Washington Center
11:23AM 37.6186 -79.9767 25° Northeast 345 397 23,000  Level Washington Center
11:24AM 37.7044 -79.9258 25° Northeast 345 397 23,000  Level Washington Center
11:25AM 37.7906 -79.8739 25° Northeast 348 400 23,000  Level Washington Center
11:26AM 37.8931 -79.8119 25° Northeast 347 399 23,000  Level Washington Center
11:27AM 37.9783 -79.7600 26° Northeast 347 399 23,000  Level Washington Center
11:28AM 38.0644 -79.7078 26° Northeast 347 399 23,000  Level Washington Center
11:29AM 38.1678 -79.6461 25° Northeast 348 400 23,000  Level Washington Center
11:30AM 38.2531 -79.5939 26° Northeast 348 400 23,000  Level Washington Center
11:31AM 38.3394 -79.5417 25° Northeast 348 400 23,000  Level Washington Center
11:32AM 38.4256 -79.4881 26° Northeast 348 400 23,000  Level Washington Center
11:33AM 38.5294 -79.4253 25° Northeast 350 403 23,000  Level Washington Center
11:34AM 38.6158 -79.3719 26° Northeast 351 404 23,000  Level Washington Center
11:36AM 38.7033 -79.3161 26° Northeast 355 409 23,000  Level Washington Center
11:37AM 38.7919 -79.2622 25° Northeast 355 409 23,000  Level Washington Center
11:38AM 38.8808 -79.2058 26° Northeast 355 409 23,000  Level Washington Center
11:39AM 38.9872 -79.1367 27° Northeast 358 412 23,000  Level Washington Center
11:40AM 39.0575 -79.0392 47° Northeast 370 426 23,000  Level Washington Center
11:41AM 39.1222 -78.9386 50° Northeast 367 422 23,000  Level Washington Center
11:42AM 39.1900 -78.8344 50° Northeast 373 429 23,000  Level Washington Center
11:43AM 39.2572 -78.7294 50° Northeast 375 432 23,000  Level Washington Center
11:44AM 39.3247 -78.6258 50° Northeast 375 432 23,000  Level Washington Center
11:45AM 39.4067 -78.5006 50° Northeast 376 433 23,000  Level Washington Center
11:46AM 39.4739 -78.3953 50° Northeast 376 433 23,000  Level Washington Center
11:47AM 39.5400 -78.2900 51° Northeast 376 433 23,000  Level Washington Center
11:48AM 39.6072 -78.1842 50° Northeast 377 434 23,000  Level Washington Center
11:49AM 39.6744 -78.0789 50° Northeast 377 434 23,000  Level Washington Center
11:50AM 39.7397 -77.9736 51° Northeast 376 433 23,000  Level Washington Center
11:51AM 39.8064 -77.8681 51° Northeast 376 433 23,000  Level Washington Center
11:52AM 39.8856 -77.7406 51° Northeast 376 433 23,000 -420 Level Washington Center
11:53AM 39.9533 -77.6317 51° Northeast 380 437 22,200 -840 Descending Washington Center
11:54AM 40.0244 -77.5211 50° Northeast 393 452 21,300 -960 Descending Washington Center
11:55AM 40.0947 -77.4081 51° Northeast 397 457 20,300 -1,020 Descending Washington Center
11:56AM 40.1619 -77.2953 52° Northeast 396 456 19,300 -1,020 Descending Washington Center
11:57AM 40.2325 -77.1836 50° Northeast 387 445 18,200 -1,140 Descending Washington Center
11:58AM 40.2978 -77.0789 51° Northeast 378 435 17,000 -600 Descending Washington Center
11:59AM 40.3647 -76.9825 48° Northeast 360 414 17,000  Level Washington Center
12:00PM 40.4314 -76.8919 46° Northeast 348 400 17,000  Level Washington Center
12:01PM 40.5086 -76.7833 47° Northeast 342 394 17,000 -540 Level Washington Center
12:02PM 40.5753 -76.6883 47° Northeast 351 404 15,900 -1,080 Descending Washington Center
12:03PM 40.6431 -76.5947 46° Northeast 354 407 14,900 -960 Descending Washington Center
12:04PM 40.7089 -76.5006 47° Northeast 353 406 13,900 -960 Descending Washington Center
12:05PM 40.7742 -76.4097 46° Northeast 345 397 13,000 -960 Descending Washington Center
12:07PM 40.8383 -76.3167 48° Northeast 345 397 12,000 -1,080 Descending Washington Center
12:08PM 40.9150 -76.2064 47° Northeast 345 397 10,800 -1,140 Descending Washington Center
12:09PM 40.9806 -76.1256 43° Northeast 334 384 9,700 -840 Descending Washington Center
12:10PM 41.0619 -76.0983 14° North 310 357 9,100 -1,020 Descending Washington Center
12:11PM 41.1692 -76.0253 27° Northeast 308 354 7,400 -1,200 Descending New York Center
12:12PM 41.2417 -75.9683 31° Northeast 290 334 6,400 -960 Descending New York Center
12:13PM 41.3036 -75.9186 31° Northeast 295 339 5,500 -960 Descending New York Center
12:14PM 41.3569 -75.8558 41° Northeast 274 315 4,500 -840 Descending New York Center
12:15PM 41.3822 -75.7875 64° Northeast 233 268 3,900 -1,020 Descending New York Center
12:16PM 41.3839 -75.7156 88° East 182 209 2,500 -1,080 Descending New York Center
12:17PM 41.3536 -75.7031 163° South 161 185 1,700 -840 Descending New York Center